sensor_id;sensor_type;location;lat;lon;timestamp;P1;durP1;ratioP1;P2;durP2;ratioP2
30723;SDS011;17473;52.286;20.930;2023-03-02T00:01:55;66.60;;;34.10;;
30723;SDS011;17473;52.286;20.930;2023-03-02T00:04:35;63.13;;;34.10;;
30723;SDS011;17473;52.286;20.930;2023-03-02T00:07:12;69.03;;;36.37;;
30723;SDS011;17473;52.286;20.930;2023-03-02T00:09:45;66.97;;;36.97;;
30723;SDS011;17473;52.286;20.930;2023-03-02T00:12:12;64.20;;;36.40;;
30723;SDS011;17473;52.286;20.930;2023-03-02T00:14:41;69.63;;;37.07;;
30723;SDS011;17473;52.286;20.930;2023-03-02T00:17:08;64.10;;;36.17;;
30723;SDS011;17473;52.286;20.930;2023-03-02T00:19:36;70.33;;;35.93;;
30723;SDS011;17473;52.286;20.930;2023-03-02T00:22:04;68.77;;;35.17;;
30723;SDS011;17473;52.286;20.930;2023-03-02T00:24:31;66.87;;;34.00;;
30723;SDS011;17473;52.286;20.930;2023-03-02T00:26:58;67.50;;;35.70;;
30723;SDS011;17473;52.286;20.930;2023-03-02T00:29:25;70.17;;;37.07;;
30723;SDS011;17473;52.286;20.930;2023-03-02T00:31:53;68.60;;;36.13;;
30723;SDS011;17473;52.286;20.930;2023-03-02T00:34:20;74.10;;;36.23;;
30723;SDS011;17473;52.286;20.930;2023-03-02T00:36:47;68.00;;;37.17;;
30723;SDS011;17473;52.286;20.930;2023-03-02T00:39:14;77.17;;;37.37;;
30723;SDS011;17473;52.286;20.930;2023-03-02T00:41:45;71.93;;;36.80;;
30723;SDS011;17473;52.286;20.930;2023-03-02T00:44:14;71.00;;;37.70;;
30723;SDS011;17473;52.286;20.930;2023-03-02T00:46:43;73.93;;;38.37;;
30723;SDS011;17473;52.286;20.930;2023-03-02T00:49:11;67.47;;;37.47;;
30723;SDS011;17473;52.286;20.930;2023-03-02T00:51:38;70.93;;;38.77;;
30723;SDS011;17473;52.286;20.930;2023-03-02T00:54:05;66.57;;;36.10;;
30723;SDS011;17473;52.286;20.930;2023-03-02T00:56:32;64.70;;;37.07;;
30723;SDS011;17473;52.286;20.930;2023-03-02T00:59:04;64.97;;;35.07;;
30723;SDS011;17473;52.286;20.930;2023-03-02T01:01:36;69.23;;;36.87;;
30723;SDS011;17473;52.286;20.930;2023-03-02T01:04:03;65.83;;;35.97;;
30723;SDS011;17473;52.286;20.930;2023-03-02T01:06:31;61.00;;;34.43;;
30723;SDS011;17473;52.286;20.930;2023-03-02T01:08:58;59.73;;;33.97;;
30723;SDS011;17473;52.286;20.930;2023-03-02T01:11:25;61.83;;;34.20;;
30723;SDS011;17473;52.286;20.930;2023-03-02T01:13:52;61.70;;;33.23;;
30723;SDS011;17473;52.286;20.930;2023-03-02T01:16:19;58.87;;;33.00;;
30723;SDS011;17473;52.286;20.930;2023-03-02T01:18:47;61.23;;;32.33;;
30723;SDS011;17473;52.286;20.930;2023-03-02T01:21:14;62.17;;;34.10;;
30723;SDS011;17473;52.286;20.930;2023-03-02T01:23:42;62.00;;;34.23;;
30723;SDS011;17473;52.286;20.930;2023-03-02T01:26:09;58.50;;;32.43;;
30723;SDS011;17473;52.286;20.930;2023-03-02T01:28:36;65.43;;;33.00;;
30723;SDS011;17473;52.286;20.930;2023-03-02T01:31:04;69.20;;;34.57;;
30723;SDS011;17473;52.286;20.930;2023-03-02T01:33:31;67.37;;;34.17;;
30723;SDS011;17473;52.286;20.930;2023-03-02T01:35:58;62.63;;;33.97;;
30723;SDS011;17473;52.286;20.930;2023-03-02T01:38:25;63.23;;;34.73;;
30723;SDS011;17473;52.286;20.930;2023-03-02T01:40:53;61.13;;;31.80;;
30723;SDS011;17473;52.286;20.930;2023-03-02T01:43:20;59.37;;;32.10;;
30723;SDS011;17473;52.286;20.930;2023-03-02T01:45:58;57.20;;;31.47;;
30723;SDS011;17473;52.286;20.930;2023-03-02T01:48:40;57.60;;;31.30;;
30723;SDS011;17473;52.286;20.930;2023-03-02T01:51:23;51.80;;;27.80;;
30723;SDS011;17473;52.286;20.930;2023-03-02T01:54:15;52.10;;;29.60;;
30723;SDS011;17473;52.286;20.930;2023-03-02T01:56:51;53.27;;;29.60;;
30723;SDS011;17473;52.286;20.930;2023-03-02T01:59:25;55.57;;;27.73;;
30723;SDS011;17473;52.286;20.930;2023-03-02T02:01:57;52.30;;;26.50;;
30723;SDS011;17473;52.286;20.930;2023-03-02T02:04:30;53.10;;;26.97;;
30723;SDS011;17473;52.286;20.930;2023-03-02T02:07:01;50.03;;;25.90;;
30723;SDS011;17473;52.286;20.930;2023-03-02T02:09:36;47.73;;;24.43;;
30723;SDS011;17473;52.286;20.930;2023-03-02T02:12:14;51.00;;;25.63;;
30723;SDS011;17473;52.286;20.930;2023-03-02T02:14:45;43.53;;;22.73;;
30723;SDS011;17473;52.286;20.930;2023-03-02T02:17:13;45.57;;;22.53;;
30723;SDS011;17473;52.286;20.930;2023-03-02T02:22:14;48.30;;;23.93;;
30723;SDS011;17473;52.286;20.930;2023-03-02T02:24:56;46.37;;;23.93;;
30723;SDS011;17473;52.286;20.930;2023-03-02T02:27:27;47.33;;;24.47;;
30723;SDS011;17473;52.286;20.930;2023-03-02T02:30:00;48.00;;;24.97;;
30723;SDS011;17473;52.286;20.930;2023-03-02T02:32:32;45.50;;;24.17;;
30723;SDS011;17473;52.286;20.930;2023-03-02T02:35:12;42.93;;;23.07;;
30723;SDS011;17473;52.286;20.930;2023-03-02T02:37:47;42.03;;;22.87;;
30723;SDS011;17473;52.286;20.930;2023-03-02T02:40:35;46.23;;;23.97;;
30723;SDS011;17473;52.286;20.930;2023-03-02T02:43:24;42.30;;;22.43;;
30723;SDS011;17473;52.286;20.930;2023-03-02T02:45:56;41.33;;;21.80;;
30723;SDS011;17473;52.286;20.930;2023-03-02T02:48:25;45.40;;;23.83;;
30723;SDS011;17473;52.286;20.930;2023-03-02T02:50:56;38.00;;;21.60;;
30723;SDS011;17473;52.286;20.930;2023-03-02T02:56:28;39.43;;;22.57;;
30723;SDS011;17473;52.286;20.930;2023-03-02T02:59:45;41.47;;;22.20;;
30723;SDS011;17473;52.286;20.930;2023-03-02T03:01:57;40.23;;;21.27;;
30723;SDS011;17473;52.286;20.930;2023-03-02T03:04:27;39.97;;;22.03;;
30723;SDS011;17473;52.286;20.930;2023-03-02T03:07:00;39.83;;;21.20;;
30723;SDS011;17473;52.286;20.930;2023-03-02T03:09:30;43.30;;;22.43;;
30723;SDS011;17473;52.286;20.930;2023-03-02T03:14:42;40.10;;;21.10;;
30723;SDS011;17473;52.286;20.930;2023-03-02T03:17:10;35.43;;;20.57;;
30723;SDS011;17473;52.286;20.930;2023-03-02T03:19:41;41.80;;;22.67;;
30723;SDS011;17473;52.286;20.930;2023-03-02T03:22:12;41.60;;;20.83;;
30723;SDS011;17473;52.286;20.930;2023-03-02T03:24:41;39.23;;;22.10;;
30723;SDS011;17473;52.286;20.930;2023-03-02T03:27:11;37.27;;;20.73;;
30723;SDS011;17473;52.286;20.930;2023-03-02T03:29:42;39.77;;;22.37;;
30723;SDS011;17473;52.286;20.930;2023-03-02T03:32:13;37.87;;;20.50;;
30723;SDS011;17473;52.286;20.930;2023-03-02T03:34:41;41.07;;;21.90;;
30723;SDS011;17473;52.286;20.930;2023-03-02T03:37:09;37.70;;;21.70;;
30723;SDS011;17473;52.286;20.930;2023-03-02T03:39:40;41.67;;;22.13;;
30723;SDS011;17473;52.286;20.930;2023-03-02T03:42:08;38.70;;;20.70;;
30723;SDS011;17473;52.286;20.930;2023-03-02T03:44:36;33.40;;;20.00;;
30723;SDS011;17473;52.286;20.930;2023-03-02T03:47:03;39.37;;;21.83;;
30723;SDS011;17473;52.286;20.930;2023-03-02T03:49:31;34.80;;;19.47;;
30723;SDS011;17473;52.286;20.930;2023-03-02T03:51:58;35.53;;;18.93;;
30723;SDS011;17473;52.286;20.930;2023-03-02T03:54:25;39.80;;;20.80;;
30723;SDS011;17473;52.286;20.930;2023-03-02T03:56:52;35.47;;;19.97;;
30723;SDS011;17473;52.286;20.930;2023-03-02T03:59:21;35.60;;;19.93;;
30723;SDS011;17473;52.286;20.930;2023-03-02T04:01:51;32.53;;;19.03;;
30723;SDS011;17473;52.286;20.930;2023-03-02T04:04:24;34.20;;;19.90;;
30723;SDS011;17473;52.286;20.930;2023-03-02T04:06:55;35.57;;;20.53;;
30723;SDS011;17473;52.286;20.930;2023-03-02T04:09:23;36.93;;;20.00;;
30723;SDS011;17473;52.286;20.930;2023-03-02T04:11:52;35.83;;;20.83;;
30723;SDS011;17473;52.286;20.930;2023-03-02T04:14:21;42.10;;;21.10;;
30723;SDS011;17473;52.286;20.930;2023-03-02T04:16:49;35.27;;;20.37;;
30723;SDS011;17473;52.286;20.930;2023-03-02T04:19:17;33.03;;;19.40;;
30723;SDS011;17473;52.286;20.930;2023-03-02T04:21:46;36.43;;;20.10;;
30723;SDS011;17473;52.286;20.930;2023-03-02T04:24:16;37.97;;;20.73;;
30723;SDS011;17473;52.286;20.930;2023-03-02T04:26:45;37.43;;;21.27;;
30723;SDS011;17473;52.286;20.930;2023-03-02T04:29:14;42.37;;;21.40;;
30723;SDS011;17473;52.286;20.930;2023-03-02T04:31:42;38.40;;;21.17;;
30723;SDS011;17473;52.286;20.930;2023-03-02T04:34:10;38.90;;;21.70;;
30723;SDS011;17473;52.286;20.930;2023-03-02T04:36:38;37.60;;;20.63;;
30723;SDS011;17473;52.286;20.930;2023-03-02T04:39:06;40.77;;;21.83;;
30723;SDS011;17473;52.286;20.930;2023-03-02T04:41:35;37.87;;;20.73;;
30723;SDS011;17473;52.286;20.930;2023-03-02T04:44:03;38.17;;;22.53;;
30723;SDS011;17473;52.286;20.930;2023-03-02T04:46:30;35.73;;;20.90;;
30723;SDS011;17473;52.286;20.930;2023-03-02T04:49:00;35.43;;;20.07;;
30723;SDS011;17473;52.286;20.930;2023-03-02T04:51:28;39.83;;;21.43;;
30723;SDS011;17473;52.286;20.930;2023-03-02T04:54:01;43.47;;;21.97;;
30723;SDS011;17473;52.286;20.930;2023-03-02T04:56:41;35.20;;;20.07;;
30723;SDS011;17473;52.286;20.930;2023-03-02T04:59:08;40.53;;;20.97;;
30723;SDS011;17473;52.286;20.930;2023-03-02T05:01:35;37.10;;;20.67;;
30723;SDS011;17473;52.286;20.930;2023-03-02T05:04:03;43.67;;;21.57;;
30723;SDS011;17473;52.286;20.930;2023-03-02T05:06:30;42.07;;;21.57;;
30723;SDS011;17473;52.286;20.930;2023-03-02T05:08:57;38.77;;;21.03;;
30723;SDS011;17473;52.286;20.930;2023-03-02T05:11:25;41.97;;;21.13;;
30723;SDS011;17473;52.286;20.930;2023-03-02T05:13:57;34.97;;;20.67;;
30723;SDS011;17473;52.286;20.930;2023-03-02T05:16:27;34.80;;;20.87;;
30723;SDS011;17473;52.286;20.930;2023-03-02T05:18:58;38.03;;;20.30;;
30723;SDS011;17473;52.286;20.930;2023-03-02T05:21:27;36.20;;;19.50;;
30723;SDS011;17473;52.286;20.930;2023-03-02T05:23:56;40.97;;;21.50;;
30723;SDS011;17473;52.286;20.930;2023-03-02T05:26:23;38.60;;;21.73;;
30723;SDS011;17473;52.286;20.930;2023-03-02T05:28:51;40.90;;;22.47;;
30723;SDS011;17473;52.286;20.930;2023-03-02T05:31:39;45.13;;;23.27;;
30723;SDS011;17473;52.286;20.930;2023-03-02T05:34:10;51.60;;;24.07;;
30723;SDS011;17473;52.286;20.930;2023-03-02T05:36:41;41.57;;;22.67;;
30723;SDS011;17473;52.286;20.930;2023-03-02T05:39:10;43.03;;;22.37;;
30723;SDS011;17473;52.286;20.930;2023-03-02T05:41:38;41.20;;;22.70;;
30723;SDS011;17473;52.286;20.930;2023-03-02T05:44:07;41.83;;;23.07;;
30723;SDS011;17473;52.286;20.930;2023-03-02T05:46:35;44.00;;;23.43;;
30723;SDS011;17473;52.286;20.930;2023-03-02T05:49:03;44.83;;;22.63;;
30723;SDS011;17473;52.286;20.930;2023-03-02T05:51:30;42.17;;;23.00;;
30723;SDS011;17473;52.286;20.930;2023-03-02T05:53:57;42.93;;;21.20;;
30723;SDS011;17473;52.286;20.930;2023-03-02T05:56:24;42.60;;;22.57;;
30723;SDS011;17473;52.286;20.930;2023-03-02T05:58:52;39.73;;;22.87;;
30723;SDS011;17473;52.286;20.930;2023-03-02T06:01:19;42.13;;;22.60;;
30723;SDS011;17473;52.286;20.930;2023-03-02T06:03:46;41.83;;;22.80;;
30723;SDS011;17473;52.286;20.930;2023-03-02T06:06:13;43.43;;;22.00;;
30723;SDS011;17473;52.286;20.930;2023-03-02T06:08:41;45.27;;;23.00;;
30723;SDS011;17473;52.286;20.930;2023-03-02T06:11:09;42.70;;;23.00;;
30723;SDS011;17473;52.286;20.930;2023-03-02T06:13:37;48.53;;;24.77;;
30723;SDS011;17473;52.286;20.930;2023-03-02T06:16:05;44.20;;;23.53;;
30723;SDS011;17473;52.286;20.930;2023-03-02T06:18:34;41.83;;;22.17;;
30723;SDS011;17473;52.286;20.930;2023-03-02T06:21:06;41.80;;;23.57;;
30723;SDS011;17473;52.286;20.930;2023-03-02T06:23:33;45.40;;;25.27;;
30723;SDS011;17473;52.286;20.930;2023-03-02T06:26:03;40.20;;;23.63;;
30723;SDS011;17473;52.286;20.930;2023-03-02T06:28:37;50.17;;;25.30;;
30723;SDS011;17473;52.286;20.930;2023-03-02T06:31:17;48.33;;;26.83;;
30723;SDS011;17473;52.286;20.930;2023-03-02T06:33:44;42.03;;;25.03;;
30723;SDS011;17473;52.286;20.930;2023-03-02T06:36:11;46.23;;;24.63;;
30723;SDS011;17473;52.286;20.930;2023-03-02T06:38:40;48.27;;;26.70;;
30723;SDS011;17473;52.286;20.930;2023-03-02T06:41:07;48.33;;;27.00;;
30723;SDS011;17473;52.286;20.930;2023-03-02T06:43:34;51.73;;;27.37;;
30723;SDS011;17473;52.286;20.930;2023-03-02T06:46:01;49.77;;;27.40;;
30723;SDS011;17473;52.286;20.930;2023-03-02T06:48:29;50.07;;;29.23;;
30723;SDS011;17473;52.286;20.930;2023-03-02T06:50:56;54.03;;;28.97;;
30723;SDS011;17473;52.286;20.930;2023-03-02T06:53:24;59.37;;;31.60;;
30723;SDS011;17473;52.286;20.930;2023-03-02T06:55:51;65.30;;;33.77;;
30723;SDS011;17473;52.286;20.930;2023-03-02T06:58:18;68.73;;;34.73;;
30723;SDS011;17473;52.286;20.930;2023-03-02T07:00:46;60.90;;;34.63;;
30723;SDS011;17473;52.286;20.930;2023-03-02T07:03:13;64.60;;;34.53;;
30723;SDS011;17473;52.286;20.930;2023-03-02T07:05:40;68.80;;;36.07;;
30723;SDS011;17473;52.286;20.930;2023-03-02T07:08:11;69.27;;;36.33;;
30723;SDS011;17473;52.286;20.930;2023-03-02T07:10:38;66.97;;;34.83;;
30723;SDS011;17473;52.286;20.930;2023-03-02T07:13:05;67.63;;;35.63;;
30723;SDS011;17473;52.286;20.930;2023-03-02T07:15:34;72.93;;;41.37;;
30723;SDS011;17473;52.286;20.930;2023-03-02T07:18:04;77.47;;;42.70;;
30723;SDS011;17473;52.286;20.930;2023-03-02T07:20:32;79.67;;;42.93;;
30723;SDS011;17473;52.286;20.930;2023-03-02T07:22:59;81.57;;;43.93;;
30723;SDS011;17473;52.286;20.930;2023-03-02T07:25:26;77.00;;;42.43;;
30723;SDS011;17473;52.286;20.930;2023-03-02T07:27:53;74.47;;;38.90;;
30723;SDS011;17473;52.286;20.930;2023-03-02T07:30:20;76.83;;;40.30;;
30723;SDS011;17473;52.286;20.930;2023-03-02T07:32:48;73.80;;;39.93;;
30723;SDS011;17473;52.286;20.930;2023-03-02T07:35:15;78.80;;;39.57;;
30723;SDS011;17473;52.286;20.930;2023-03-02T07:37:43;75.93;;;39.57;;
30723;SDS011;17473;52.286;20.930;2023-03-02T07:40:10;72.40;;;39.23;;
30723;SDS011;17473;52.286;20.930;2023-03-02T07:42:38;74.13;;;39.07;;
30723;SDS011;17473;52.286;20.930;2023-03-02T07:45:06;72.10;;;39.17;;
30723;SDS011;17473;52.286;20.930;2023-03-02T07:47:33;73.27;;;38.00;;
30723;SDS011;17473;52.286;20.930;2023-03-02T07:50:01;70.87;;;38.50;;
30723;SDS011;17473;52.286;20.930;2023-03-02T07:52:29;72.50;;;36.97;;
30723;SDS011;17473;52.286;20.930;2023-03-02T07:54:56;71.27;;;37.67;;
30723;SDS011;17473;52.286;20.930;2023-03-02T07:57:23;62.70;;;35.47;;
30723;SDS011;17473;52.286;20.930;2023-03-02T07:59:50;74.17;;;37.07;;
30723;SDS011;17473;52.286;20.930;2023-03-02T08:02:17;60.30;;;33.53;;
30723;SDS011;17473;52.286;20.930;2023-03-02T08:04:45;68.67;;;35.90;;
30723;SDS011;17473;52.286;20.930;2023-03-02T08:07:12;68.43;;;36.07;;
30723;SDS011;17473;52.286;20.930;2023-03-02T08:09:40;63.10;;;34.17;;
30723;SDS011;17473;52.286;20.930;2023-03-02T08:12:07;66.40;;;35.97;;
30723;SDS011;17473;52.286;20.930;2023-03-02T08:14:34;63.97;;;35.70;;
30723;SDS011;17473;52.286;20.930;2023-03-02T08:17:03;59.53;;;34.83;;
30723;SDS011;17473;52.286;20.930;2023-03-02T08:19:32;61.53;;;33.27;;
30723;SDS011;17473;52.286;20.930;2023-03-02T08:21:59;65.10;;;33.03;;
30723;SDS011;17473;52.286;20.930;2023-03-02T08:24:27;60.13;;;32.10;;
30723;SDS011;17473;52.286;20.930;2023-03-02T08:26:54;59.53;;;31.67;;
30723;SDS011;17473;52.286;20.930;2023-03-02T08:29:24;55.67;;;32.50;;
30723;SDS011;17473;52.286;20.930;2023-03-02T08:31:51;60.53;;;31.13;;
30723;SDS011;17473;52.286;20.930;2023-03-02T08:34:19;55.80;;;31.87;;
30723;SDS011;17473;52.286;20.930;2023-03-02T08:36:46;55.43;;;31.13;;
30723;SDS011;17473;52.286;20.930;2023-03-02T08:39:13;62.10;;;32.10;;
30723;SDS011;17473;52.286;20.930;2023-03-02T08:41:40;59.33;;;32.33;;
30723;SDS011;17473;52.286;20.930;2023-03-02T08:44:07;55.93;;;29.23;;
30723;SDS011;17473;52.286;20.930;2023-03-02T08:46:35;52.53;;;28.87;;
30723;SDS011;17473;52.286;20.930;2023-03-02T08:49:02;48.53;;;27.87;;
30723;SDS011;17473;52.286;20.930;2023-03-02T08:51:29;53.43;;;27.90;;
30723;SDS011;17473;52.286;20.930;2023-03-02T08:53:56;56.07;;;28.30;;
30723;SDS011;17473;52.286;20.930;2023-03-02T08:56:25;54.30;;;29.80;;
30723;SDS011;17473;52.286;20.930;2023-03-02T08:59:02;56.07;;;29.07;;
30723;SDS011;17473;52.286;20.930;2023-03-02T09:01:32;55.27;;;29.60;;
30723;SDS011;17473;52.286;20.930;2023-03-02T09:04:02;52.30;;;28.37;;
30723;SDS011;17473;52.286;20.930;2023-03-02T09:06:33;45.60;;;26.57;;
30723;SDS011;17473;52.286;20.930;2023-03-02T09:09:03;54.90;;;27.67;;
30723;SDS011;17473;52.286;20.930;2023-03-02T09:11:31;51.33;;;27.90;;
30723;SDS011;17473;52.286;20.930;2023-03-02T09:13:59;51.57;;;26.47;;
30723;SDS011;17473;52.286;20.930;2023-03-02T09:16:27;45.77;;;24.37;;
30723;SDS011;17473;52.286;20.930;2023-03-02T09:18:54;47.07;;;25.50;;
30723;SDS011;17473;52.286;20.930;2023-03-02T09:21:21;43.20;;;23.50;;
30723;SDS011;17473;52.286;20.930;2023-03-02T09:23:48;43.73;;;22.23;;
30723;SDS011;17473;52.286;20.930;2023-03-02T09:26:20;46.17;;;21.47;;
30723;SDS011;17473;52.286;20.930;2023-03-02T09:28:48;35.77;;;20.80;;
30723;SDS011;17473;52.286;20.930;2023-03-02T09:31:15;32.47;;;18.83;;
30723;SDS011;17473;52.286;20.930;2023-03-02T09:33:42;37.23;;;19.70;;
30723;SDS011;17473;52.286;20.930;2023-03-02T09:36:10;38.40;;;19.27;;
30723;SDS011;17473;52.286;20.930;2023-03-02T09:38:51;32.97;;;17.87;;
30723;SDS011;17473;52.286;20.930;2023-03-02T09:52:47;27.30;;;15.13;;
30723;SDS011;17473;52.286;20.930;2023-03-02T09:55:19;28.40;;;16.20;;
30723;SDS011;17473;52.286;20.930;2023-03-02T09:57:53;28.13;;;14.97;;
30723;SDS011;17473;52.286;20.930;2023-03-02T10:00:26;24.97;;;14.47;;
30723;SDS011;17473;52.286;20.930;2023-03-02T10:03:08;22.07;;;13.63;;
30723;SDS011;17473;52.286;20.930;2023-03-02T10:05:52;24.67;;;13.33;;
30723;SDS011;17473;52.286;20.930;2023-03-02T10:08:25;22.23;;;13.77;;
30723;SDS011;17473;52.286;20.930;2023-03-02T10:13:29;19.33;;;11.37;;
30723;SDS011;17473;52.286;20.930;2023-03-02T10:19:08;15.73;;;9.60;;
30723;SDS011;17473;52.286;20.930;2023-03-02T10:21:52;18.93;;;10.17;;
30723;SDS011;17473;52.286;20.930;2023-03-02T10:27:41;13.13;;;8.20;;
30723;SDS011;17473;52.286;20.930;2023-03-02T10:32:54;11.47;;;7.37;;
30723;SDS011;17473;52.286;20.930;2023-03-02T10:35:26;10.43;;;7.20;;
30723;SDS011;17473;52.286;20.930;2023-03-02T10:37:57;12.50;;;8.20;;
30723;SDS011;17473;52.286;20.930;2023-03-02T10:41:21;18.00;;;7.93;;
30723;SDS011;17473;52.286;20.930;2023-03-02T10:43:51;12.20;;;7.60;;
30723;SDS011;17473;52.286;20.930;2023-03-02T10:46:22;12.67;;;7.17;;
30723;SDS011;17473;52.286;20.930;2023-03-02T10:48:53;12.37;;;7.73;;
30723;SDS011;17473;52.286;20.930;2023-03-02T10:51:30;15.80;;;9.00;;
30723;SDS011;17473;52.286;20.930;2023-03-02T10:54:07;15.37;;;9.53;;
30723;SDS011;17473;52.286;20.930;2023-03-02T10:56:42;19.13;;;10.27;;
30723;SDS011;17473;52.286;20.930;2023-03-02T11:02:24;22.30;;;10.27;;
30723;SDS011;17473;52.286;20.930;2023-03-02T11:04:55;14.37;;;9.37;;
30723;SDS011;17473;52.286;20.930;2023-03-02T11:07:35;19.67;;;10.67;;
30723;SDS011;17473;52.286;20.930;2023-03-02T11:10:04;14.87;;;9.60;;
30723;SDS011;17473;52.286;20.930;2023-03-02T11:12:45;17.03;;;9.53;;
30723;SDS011;17473;52.286;20.930;2023-03-02T11:15:21;16.20;;;8.90;;
30723;SDS011;17473;52.286;20.930;2023-03-02T11:18:08;12.83;;;8.30;;
30723;SDS011;17473;52.286;20.930;2023-03-02T11:21:42;13.70;;;9.00;;
30723;SDS011;17473;52.286;20.930;2023-03-02T11:24:20;15.33;;;7.97;;
30723;SDS011;17473;52.286;20.930;2023-03-02T11:27:20;13.47;;;7.47;;
30723;SDS011;17473;52.286;20.930;2023-03-02T11:35:21;13.87;;;7.60;;
30723;SDS011;17473;52.286;20.930;2023-03-02T11:38:41;11.43;;;7.63;;
30723;SDS011;17473;52.286;20.930;2023-03-02T11:43:59;16.30;;;8.27;;
30723;SDS011;17473;52.286;20.930;2023-03-02T11:46:49;12.80;;;7.40;;
30723;SDS011;17473;52.286;20.930;2023-03-02T11:49:26;13.77;;;7.53;;
30723;SDS011;17473;52.286;20.930;2023-03-02T11:52:43;15.70;;;8.07;;
30723;SDS011;17473;52.286;20.930;2023-03-02T11:55:15;15.00;;;8.07;;
30723;SDS011;17473;52.286;20.930;2023-03-02T11:57:52;19.63;;;9.17;;
30723;SDS011;17473;52.286;20.930;2023-03-02T12:00:35;16.87;;;8.70;;
30723;SDS011;17473;52.286;20.930;2023-03-02T12:03:49;19.97;;;8.10;;
30723;SDS011;17473;52.286;20.930;2023-03-02T12:08:48;20.93;;;8.60;;
30723;SDS011;17473;52.286;20.930;2023-03-02T12:11:38;21.50;;;10.27;;
30723;SDS011;17473;52.286;20.930;2023-03-02T12:17:21;16.93;;;9.10;;
30723;SDS011;17473;52.286;20.930;2023-03-02T12:22:46;16.90;;;9.80;;
30723;SDS011;17473;52.286;20.930;2023-03-02T12:27:47;17.27;;;8.47;;
30723;SDS011;17473;52.286;20.930;2023-03-02T12:32:59;13.23;;;8.47;;
30723;SDS011;17473;52.286;20.930;2023-03-02T12:35:47;25.13;;;9.77;;
30723;SDS011;17473;52.286;20.930;2023-03-02T12:38:27;13.80;;;8.93;;
30723;SDS011;17473;52.286;20.930;2023-03-02T12:46:56;13.20;;;8.37;;
30723;SDS011;17473;52.286;20.930;2023-03-02T12:49:41;20.73;;;9.27;;
30723;SDS011;17473;52.286;20.930;2023-03-02T12:52:26;14.23;;;8.87;;
30723;SDS011;17473;52.286;20.930;2023-03-02T12:57:26;14.20;;;8.83;;
30723;SDS011;17473;52.286;20.930;2023-03-02T12:59:54;18.73;;;8.17;;
30723;SDS011;17473;52.286;20.930;2023-03-02T13:02:25;15.47;;;9.50;;
30723;SDS011;17473;52.286;20.930;2023-03-02T13:05:06;19.10;;;10.63;;
30723;SDS011;17473;52.286;20.930;2023-03-02T13:07:41;20.00;;;9.13;;
30723;SDS011;17473;52.286;20.930;2023-03-02T13:15:46;28.23;;;10.77;;
30723;SDS011;17473;52.286;20.930;2023-03-02T13:18:16;19.77;;;9.77;;
30723;SDS011;17473;52.286;20.930;2023-03-02T13:20:43;22.53;;;9.57;;
30723;SDS011;17473;52.286;20.930;2023-03-02T13:23:12;19.90;;;9.10;;
30723;SDS011;17473;52.286;20.930;2023-03-02T13:25:50;20.27;;;9.50;;
30723;SDS011;17473;52.286;20.930;2023-03-02T13:28:25;18.30;;;8.77;;
30723;SDS011;17473;52.286;20.930;2023-03-02T13:31:02;18.57;;;9.30;;
30723;SDS011;17473;52.286;20.930;2023-03-02T13:33:50;15.50;;;10.00;;
30723;SDS011;17473;52.286;20.930;2023-03-02T13:36:21;15.93;;;9.40;;
30723;SDS011;17473;52.286;20.930;2023-03-02T13:38:52;19.17;;;10.67;;
30723;SDS011;17473;52.286;20.930;2023-03-02T13:41:28;17.33;;;9.73;;
30723;SDS011;17473;52.286;20.930;2023-03-02T13:43:58;18.40;;;9.00;;
30723;SDS011;17473;52.286;20.930;2023-03-02T13:46:46;20.97;;;10.87;;
30723;SDS011;17473;52.286;20.930;2023-03-02T13:49:23;24.00;;;9.73;;
30723;SDS011;17473;52.286;20.930;2023-03-02T13:52:01;16.50;;;9.30;;
30723;SDS011;17473;52.286;20.930;2023-03-02T13:54:42;21.53;;;10.50;;
30723;SDS011;17473;52.286;20.930;2023-03-02T13:57:14;16.93;;;9.70;;
30723;SDS011;17473;52.286;20.930;2023-03-02T13:59:47;18.60;;;8.93;;
30723;SDS011;17473;52.286;20.930;2023-03-02T14:02:32;17.57;;;10.03;;
30723;SDS011;17473;52.286;20.930;2023-03-02T14:04:59;15.53;;;9.50;;
30723;SDS011;17473;52.286;20.930;2023-03-02T14:07:26;15.33;;;9.23;;
30723;SDS011;17473;52.286;20.930;2023-03-02T14:09:54;14.83;;;9.17;;
30723;SDS011;17473;52.286;20.930;2023-03-02T14:12:24;13.63;;;8.77;;
30723;SDS011;17473;52.286;20.930;2023-03-02T14:14:59;21.37;;;9.13;;
30723;SDS011;17473;52.286;20.930;2023-03-02T14:17:28;17.00;;;9.47;;
30723;SDS011;17473;52.286;20.930;2023-03-02T14:19:56;14.43;;;9.20;;
30723;SDS011;17473;52.286;20.930;2023-03-02T14:22:24;17.23;;;9.77;;
30723;SDS011;17473;52.286;20.930;2023-03-02T14:24:52;17.63;;;9.83;;
30723;SDS011;17473;52.286;20.930;2023-03-02T14:27:27;21.40;;;9.90;;
30723;SDS011;17473;52.286;20.930;2023-03-02T14:29:56;17.13;;;9.40;;
30723;SDS011;17473;52.286;20.930;2023-03-02T14:32:24;17.33;;;9.20;;
30723;SDS011;17473;52.286;20.930;2023-03-02T14:34:51;15.87;;;8.93;;
30723;SDS011;17473;52.286;20.930;2023-03-02T14:37:19;18.07;;;9.40;;
30723;SDS011;17473;52.286;20.930;2023-03-02T14:39:51;16.20;;;10.00;;
30723;SDS011;17473;52.286;20.930;2023-03-02T14:42:22;17.27;;;9.23;;
30723;SDS011;17473;52.286;20.930;2023-03-02T14:44:49;17.90;;;9.93;;
30723;SDS011;17473;52.286;20.930;2023-03-02T14:47:17;21.33;;;11.40;;
30723;SDS011;17473;52.286;20.930;2023-03-02T14:49:45;25.17;;;10.63;;
30723;SDS011;17473;52.286;20.930;2023-03-02T14:54:50;21.67;;;10.97;;
30723;SDS011;17473;52.286;20.930;2023-03-02T14:57:26;22.70;;;9.47;;
30723;SDS011;17473;52.286;20.930;2023-03-02T14:59:55;19.67;;;11.03;;
30723;SDS011;17473;52.286;20.930;2023-03-02T15:02:25;20.33;;;9.83;;
30723;SDS011;17473;52.286;20.930;2023-03-02T15:04:53;18.40;;;9.63;;
30723;SDS011;17473;52.286;20.930;2023-03-02T15:07:23;24.50;;;10.10;;
30723;SDS011;17473;52.286;20.930;2023-03-02T15:09:53;28.97;;;10.60;;
30723;SDS011;17473;52.286;20.930;2023-03-02T15:12:22;23.10;;;10.03;;
30723;SDS011;17473;52.286;20.930;2023-03-02T15:14:50;22.97;;;10.60;;
30723;SDS011;17473;52.286;20.930;2023-03-02T15:17:17;17.60;;;10.73;;
30723;SDS011;17473;52.286;20.930;2023-03-02T15:19:45;17.70;;;10.00;;
30723;SDS011;17473;52.286;20.930;2023-03-02T15:22:12;17.50;;;10.47;;
30723;SDS011;17473;52.286;20.930;2023-03-02T15:24:40;20.47;;;11.30;;
30723;SDS011;17473;52.286;20.930;2023-03-02T15:27:07;21.57;;;11.67;;
30723;SDS011;17473;52.286;20.930;2023-03-02T15:29:34;21.37;;;11.03;;
30723;SDS011;17473;52.286;20.930;2023-03-02T15:32:01;18.43;;;10.70;;
30723;SDS011;17473;52.286;20.930;2023-03-02T15:34:28;20.57;;;11.27;;
30723;SDS011;17473;52.286;20.930;2023-03-02T15:36:55;23.60;;;12.00;;
30723;SDS011;17473;52.286;20.930;2023-03-02T15:39:22;19.70;;;11.63;;
30723;SDS011;17473;52.286;20.930;2023-03-02T15:41:50;24.70;;;12.60;;
30723;SDS011;17473;52.286;20.930;2023-03-02T15:44:20;20.10;;;11.83;;
30723;SDS011;17473;52.286;20.930;2023-03-02T15:46:51;20.87;;;11.77;;
30723;SDS011;17473;52.286;20.930;2023-03-02T15:49:20;20.70;;;11.37;;